createdAt,value
2023-10-18T00:00:59.619Z,101603.47
2023-10-18T00:03:30.560Z,101606.16
2023-10-18T00:06:01.073Z,101600.00
2023-10-18T00:08:29.550Z,101602.69
2023-10-18T00:11:01.419Z,101608.06
2023-10-18T00:13:31.262Z,101602.75
2023-10-18T00:16:03.582Z,101599.22
2023-10-18T00:18:31.862Z,101601.06
2023-10-18T00:21:02.221Z,101601.97
2023-10-18T00:23:32.180Z,101588.69
2023-10-18T00:26:01.856Z,101589.56
2023-10-18T00:28:29.990Z,101591.38
2023-10-18T00:30:58.208Z,101590.50
2023-10-18T00:33:27.637Z,101585.19
2023-10-18T00:35:58.675Z,101584.31
2023-10-18T00:38:29.489Z,101582.53
2023-10-18T00:40:58.131Z,101580.78
2023-10-18T00:43:28.065Z,101571.91
2023-10-18T00:45:57.290Z,101565.72
2023-10-18T00:48:26.565Z,101567.50
2023-10-18T00:50:56.204Z,101565.75
2023-10-18T00:53:26.127Z,101562.28
2023-10-18T00:56:00.875Z,101559.66
2023-10-18T00:58:30.306Z,101550.81
2023-10-18T01:00:59.540Z,101548.19
2023-10-18T01:03:32.317Z,101545.53
2023-10-18T01:06:06.338Z,101541.16
2023-10-18T01:08:35.362Z,101542.97
2023-10-18T01:11:08.242Z,101538.59
2023-10-18T01:13:38.644Z,101543.94
2023-10-18T01:16:09.314Z,101534.22
2023-10-18T01:18:37.626Z,101536.91
2023-10-18T01:21:16.086Z,101537.84
2023-10-18T01:23:50.373Z,101534.34
2023-10-18T01:26:20.805Z,101525.50
2023-10-18T01:28:49.588Z,101524.63
2023-10-18T01:31:17.914Z,101525.50
2023-10-18T01:33:47.609Z,101529.03
2023-10-18T01:36:16.958Z,101535.25
2023-10-18T01:38:47.442Z,101531.69
2023-10-18T01:41:18.151Z,101538.78
2023-10-18T01:43:49.103Z,101529.91
2023-10-18T01:46:17.735Z,101522.78
2023-10-18T01:48:52.394Z,101527.22
2023-10-18T01:51:21.171Z,101521.00
2023-10-18T01:53:51.910Z,101516.59
2023-10-18T01:56:22.994Z,101521.03
2023-10-18T01:58:52.734Z,101506.88
2023-10-18T02:01:20.912Z,101511.34
2023-10-18T02:03:51.835Z,101503.38
2023-10-18T02:06:22.176Z,101504.31
2023-10-18T02:08:51.591Z,101511.44
2023-10-18T02:11:20.410Z,101506.16
2023-10-18T02:13:48.706Z,101506.19
2023-10-18T02:16:20.765Z,101510.72
2023-10-18T02:18:50.961Z,101511.66
2023-10-18T02:21:22.482Z,101506.38
2023-10-18T02:23:52.312Z,101516.19
2023-10-18T02:26:33.283Z,101514.47
2023-10-18T02:31:36.381Z,101508.31
2023-10-18T02:34:15.089Z,101504.72
2023-10-18T02:36:54.340Z,101507.41
2023-10-18T02:39:25.629Z,101512.72
2023-10-18T02:41:54.920Z,101502.94
2023-10-18T02:44:26.559Z,101505.59
2023-10-18T02:47:08.074Z,101497.66
2023-10-18T02:49:36.174Z,101495.03
2023-10-18T02:52:06.283Z,101495.06
2023-10-18T02:54:36.656Z,101504.88
2023-10-18T02:57:06.336Z,101504.88
2023-10-18T02:59:36.388Z,101502.25
2023-10-18T03:02:14.754Z,101504.06
2023-10-18T03:04:43.917Z,101505.03
2023-10-18T03:07:14.505Z,101512.13
2023-10-18T03:09:42.849Z,101516.63
2023-10-18T03:12:15.708Z,101498.88
2023-10-18T03:14:55.232Z,101498.00
2023-10-18T03:17:26.487Z,101504.22
2023-10-18T03:19:57.251Z,101507.75
2023-10-18T03:22:30.699Z,101496.19
2023-10-18T03:25:00.337Z,101493.50
2023-10-18T03:27:32.077Z,101487.25
2023-10-18T03:30:00.648Z,101485.41
2023-10-18T03:32:31.664Z,101488.03
2023-10-18T03:35:00.436Z,101487.97
2023-10-18T03:37:28.600Z,101488.78
2023-10-18T03:39:57.536Z,101483.38
2023-10-18T03:42:34.958Z,101479.72
2023-10-18T03:45:12.297Z,101484.94
2023-10-18T03:47:43.079Z,101483.94
2023-10-18T03:50:16.384Z,101487.38
2023-10-18T03:52:46.756Z,101484.59
2023-10-18T03:55:18.762Z,101488.06
2023-10-18T03:57:47.315Z,101480.03
2023-10-18T04:00:38.738Z,101476.38
2023-10-18T04:03:13.408Z,101469.16
2023-10-18T04:05:45.946Z,101464.63
2023-10-18T04:08:16.177Z,101465.44
2023-10-18T04:10:45.369Z,101462.59
2023-10-18T04:13:14.389Z,101461.63
2023-10-18T04:15:46.930Z,101453.50
2023-10-18T04:18:27.530Z,101451.63
2023-10-18T04:20:59.835Z,101448.00
2023-10-18T04:23:28.314Z,101448.78
2023-10-18T04:26:00.171Z,101446.03
2023-10-18T04:28:30.059Z,101448.66
2023-10-18T04:31:01.818Z,101442.41
2023-10-18T04:33:37.410Z,101436.09
2023-10-18T04:36:11.337Z,101431.66
2023-10-18T04:38:43.785Z,101434.31
2023-10-18T04:41:24.813Z,101429.84
2023-10-18T04:43:54.939Z,101423.69
2023-10-18T04:46:27.937Z,101414.00
2023-10-18T04:51:57.607Z,101406.16
2023-10-18T04:54:37.661Z,101414.28
2023-10-18T04:57:08.403Z,101401.94
2023-10-18T04:59:45.948Z,101403.75
2023-10-18T05:02:18.180Z,101411.88
2023-10-18T05:04:47.785Z,101406.59
2023-10-18T05:07:17.477Z,101411.16
2023-10-18T05:09:46.758Z,101405.91
2023-10-18T05:12:29.839Z,101410.44
2023-10-18T05:15:11.940Z,101409.59
2023-10-18T05:17:43.806Z,101411.47
2023-10-18T05:20:27.509Z,101412.47
2023-10-18T05:23:00.429Z,101412.56
2023-10-18T05:25:35.562Z,101420.59
2023-10-18T05:28:10.589Z,101421.50
2023-10-18T05:30:57.605Z,101428.59
2023-10-18T05:33:43.143Z,101417.97
2023-10-18T05:36:31.149Z,101415.31
2023-10-18T05:39:19.628Z,101420.63
2023-10-18T05:41:47.439Z,101423.25
2023-10-18T05:44:15.741Z,101422.34
2023-10-18T05:46:44.056Z,101423.22
2023-10-18T05:49:26.684Z,101428.47
2023-10-18T05:52:00.285Z,101432.84
2023-10-18T05:54:30.224Z,101437.22
2023-10-18T05:56:59.255Z,101434.47
2023-10-18T05:59:32.841Z,101429.97
2023-10-18T06:02:03.787Z,101427.22
2023-10-18T06:04:39.148Z,101419.09
2023-10-18T06:07:10.995Z,101423.47
2023-10-18T06:09:47.946Z,101420.75
2023-10-18T06:12:23.231Z,101417.22
2023-10-18T06:14:54.056Z,101421.56
2023-10-18T06:17:24.037Z,101409.09
2023-10-18T06:19:52.637Z,101409.88
2023-10-18T06:22:30.731Z,101403.63
2023-10-18T06:25:05.306Z,101415.13
2023-10-18T06:27:40.221Z,101409.66
2023-10-18T06:30:16.055Z,101410.50
2023-10-18T06:32:45.069Z,101395.41
2023-10-18T06:35:17.310Z,101406.94
2023-10-18T06:37:46.218Z,101403.38
2023-10-18T06:40:23.871Z,101406.03
2023-10-18T06:42:52.264Z,101407.78
2023-10-18T06:45:20.554Z,101395.31
2023-10-18T06:47:48.765Z,101393.56
2023-10-18T06:50:21.399Z,101397.09
2023-10-18T06:52:55.091Z,101400.66
2023-10-18T06:55:37.196Z,101401.50
2023-10-18T06:58:13.430Z,101403.22
2023-10-18T07:00:45.446Z,101398.72
2023-10-18T07:03:18.204Z,101396.84
2023-10-18T07:05:50.809Z,101408.28
2023-10-18T07:08:26.519Z,101409.06
2023-10-18T07:11:08.046Z,101398.22
2023-10-18T07:13:47.510Z,101400.72
2023-10-18T07:16:17.398Z,101397.81
2023-10-18T07:18:46.468Z,101396.63
2023-10-18T07:21:20.346Z,101392.78
2023-10-18T07:23:54.561Z,101385.28
2023-10-18T07:26:25.869Z,101396.53
2023-10-18T07:28:55.644Z,101384.63
2023-10-18T07:31:33.698Z,101366.47
2023-10-18T07:34:04.495Z,101379.47
2023-10-18T07:36:38.819Z,101386.22
2023-10-18T07:39:07.607Z,101383.16
2023-10-18T07:41:37.229Z,101374.75
2023-10-18T07:44:06.784Z,101358.28
2023-10-18T07:46:35.783Z,101364.97
2023-10-18T07:49:12.397Z,101362.75
2023-10-18T07:51:49.657Z,101358.75
2023-10-18T07:54:18.685Z,101365.38
2023-10-18T07:56:51.508Z,101356.91
2023-10-18T07:59:30.911Z,101356.47
2023-10-18T08:02:14.116Z,101361.31
2023-10-18T08:04:43.895Z,101341.97
2023-10-18T08:07:16.370Z,101342.31
2023-10-18T08:09:45.061Z,101347.94
2023-10-18T08:12:29.299Z,101346.41
2023-10-18T08:14:59.145Z,101335.88
2023-10-18T08:17:44.412Z,101335.25
2023-10-18T08:20:39.940Z,101342.53
2023-10-18T08:23:20.194Z,101344.28
2023-10-18T08:25:52.720Z,101341.63
2023-10-18T08:28:22.444Z,101340.78
2023-10-18T08:31:05.477Z,101334.66
2023-10-18T08:33:34.697Z,101333.69
2023-10-18T08:36:08.762Z,101340.78
2023-10-18T08:38:36.905Z,101341.69
2023-10-18T08:41:15.185Z,101330.88
2023-10-18T08:43:59.548Z,101337.03
2023-10-18T08:46:28.939Z,101339.69
2023-10-18T08:48:58.670Z,101329.88
2023-10-18T08:51:28.991Z,101330.94
2023-10-18T08:53:59.999Z,101324.72
2023-10-18T08:56:30.522Z,101332.03
2023-10-18T08:59:00.972Z,101331.22
2023-10-18T09:01:35.707Z,101324.94
2023-10-18T09:04:03.412Z,101329.47
2023-10-18T09:06:33.200Z,101331.31
2023-10-18T09:09:06.888Z,101325.06
2023-10-18T09:11:37.323Z,101325.06
2023-10-18T09:14:09.112Z,101333.25
2023-10-18T09:16:39.896Z,101317.03
2023-10-18T09:19:11.139Z,101305.44
2023-10-18T09:21:51.969Z,101306.34
2023-10-18T09:24:24.658Z,101320.53
2023-10-18T09:26:53.153Z,101319.78
2023-10-18T09:29:22.820Z,101311.88
2023-10-18T09:31:55.958Z,101314.00
2023-10-18T09:34:25.301Z,101316.25
2023-10-18T09:36:57.805Z,101306.69
2023-10-18T09:39:38.784Z,101307.09
2023-10-18T09:42:13.739Z,101306.50
2023-10-18T09:44:43.563Z,101303.91
2023-10-18T09:47:11.992Z,101303.28
2023-10-18T09:49:41.182Z,101297.50
2023-10-18T09:52:13.134Z,101300.75
2023-10-18T09:54:48.428Z,101295.72
2023-10-18T09:57:24.403Z,101290.69
2023-10-18T09:59:56.447Z,101282.94
2023-10-18T10:02:26.145Z,101285.38
2023-10-18T10:04:55.215Z,101278.56
2023-10-18T10:07:40.681Z,101277.19
2023-10-18T10:10:10.967Z,101274.06
2023-10-18T10:12:43.205Z,101267.56
2023-10-18T10:15:15.639Z,101277.03
2023-10-18T10:17:48.650Z,101271.28
2023-10-18T10:20:17.234Z,101255.91
2023-10-18T10:25:26.261Z,101255.28
2023-10-18T10:28:16.315Z,101248.78
2023-10-18T10:30:47.719Z,101252.06
2023-10-18T10:33:15.893Z,101251.72
2023-10-18T10:35:48.556Z,101253.06
2023-10-18T10:38:20.216Z,101247.31
2023-10-18T10:40:50.700Z,101246.66
2023-10-18T10:43:21.046Z,101240.38
2023-10-18T10:45:56.944Z,101233.00
2023-10-18T10:48:38.178Z,101233.41
2023-10-18T10:51:14.776Z,101235.06
2023-10-18T10:53:46.467Z,101215.22
2023-10-18T10:56:19.501Z,101214.56
2023-10-18T10:59:04.175Z,101209.13
2023-10-18T11:02:12.196Z,101207.75
2023-10-18T11:05:00.017Z,101199.72
2023-10-18T11:07:29.328Z,101194.41
2023-10-18T11:10:07.273Z,101202.44
2023-10-18T11:12:35.460Z,101196.13
2023-10-18T11:15:05.363Z,101192.56
2023-10-18T11:17:37.184Z,101194.19
2023-10-18T11:20:19.213Z,101183.34
2023-10-18T11:22:48.978Z,101173.03
2023-10-18T11:25:21.124Z,101176.38
2023-10-18T11:27:49.348Z,101171.63
2023-10-18T11:30:23.827Z,101163.38
2023-10-18T11:32:55.603Z,101166.84
2023-10-18T11:35:43.808Z,101166.50
2023-10-18T11:38:12.702Z,101159.44
2023-10-18T11:40:43.896Z,101156.00
2023-10-18T11:43:12.597Z,101151.66
2023-10-18T11:45:42.854Z,101154.59
2023-10-18T11:48:12.733Z,101141.25
2023-10-18T11:50:42.646Z,101146.03
2023-10-18T11:53:13.564Z,101139.00
2023-10-18T11:55:56.728Z,101131.72
2023-10-18T11:58:25.598Z,101126.06
2023-10-18T12:00:59.896Z,101128.66
2023-10-18T12:03:30.206Z,101127.81
2023-10-18T12:06:00.452Z,101125.75
2023-10-18T12:08:31.963Z,101119.13
2023-10-18T12:11:00.273Z,101109.91
2023-10-18T12:13:28.477Z,101107.53
2023-10-18T12:16:01.736Z,101101.56
2023-10-18T12:18:33.341Z,101097.13
2023-10-18T12:21:01.476Z,101098.09
2023-10-18T12:23:30.052Z,101099.81
2023-10-18T12:26:00.936Z,101090.72
2023-10-18T12:28:30.100Z,101093.09
2023-10-18T12:31:02.172Z,101091.78
2023-10-18T12:33:35.191Z,101090.38
2023-10-18T12:36:08.621Z,101083.97
2023-10-18T12:38:37.654Z,101082.22
2023-10-18T12:41:08.717Z,101081.56
2023-10-18T12:43:40.565Z,101074.53
2023-10-18T12:46:08.941Z,101066.63
2023-10-18T12:48:38.713Z,101074.66
2023-10-18T12:51:13.063Z,101061.84
2023-10-18T12:53:42.907Z,101062.47
2023-10-18T12:56:32.537Z,101055.13
2023-10-18T12:59:13.143Z,101059.31
2023-10-18T13:01:47.751Z,101058.34
2023-10-18T13:04:19.904Z,101049.09
2023-10-18T13:06:48.659Z,101042.13
2023-10-18T13:09:20.039Z,101034.00
2023-10-18T13:12:01.953Z,101028.69
2023-10-18T13:14:32.589Z,101032.81
2023-10-18T13:17:04.738Z,101025.47
2023-10-18T13:19:34.598Z,101024.66
2023-10-18T13:22:05.636Z,101016.44
2023-10-18T13:24:34.195Z,101003.84
2023-10-18T13:27:02.470Z,100999.41
2023-10-18T13:29:33.626Z,100993.91
2023-10-18T13:32:07.829Z,100995.66
2023-10-18T13:34:41.095Z,100982.88
2023-10-18T13:37:13.948Z,100976.28
2023-10-18T13:39:47.570Z,100982.44
2023-10-18T13:42:15.789Z,100981.25
2023-10-18T13:44:44.056Z,100976.25
2023-10-18T13:47:14.299Z,100965.00
2023-10-18T13:49:44.414Z,100966.50
2023-10-18T13:52:13.472Z,100964.22
2023-10-18T13:54:42.276Z,100963.69
2023-10-18T13:57:11.039Z,100956.00
2023-10-18T13:59:40.236Z,100950.13
2023-10-18T14:02:08.714Z,100944.19
2023-10-18T14:04:37.299Z,100947.19
2023-10-18T14:07:07.264Z,100944.72
2023-10-18T14:09:36.751Z,100944.94
2023-10-18T14:12:05.760Z,100935.38
2023-10-18T14:14:37.961Z,100936.69
2023-10-18T14:17:06.606Z,100928.97
2023-10-18T14:19:34.913Z,100916.09
2023-10-18T14:22:03.167Z,100925.47
2023-10-18T14:24:33.299Z,100924.28
2023-10-18T14:27:04.800Z,100926.41
2023-10-18T14:29:33.397Z,100920.56
2023-10-18T14:32:03.978Z,100918.25
2023-10-18T14:34:32.324Z,100919.44
2023-10-18T14:37:00.426Z,100905.34
2023-10-18T14:39:38.903Z,100907.47
2023-10-18T14:42:09.821Z,100894.44
2023-10-18T14:44:38.665Z,100892.94
2023-10-18T14:47:08.383Z,100887.84
2023-10-18T14:49:40.152Z,100889.88
2023-10-18T14:52:12.483Z,100888.34
2023-10-18T14:54:42.660Z,100878.72
2023-10-18T14:57:13.143Z,100878.13
2023-10-18T14:59:41.394Z,100873.91
2023-10-18T15:02:10.809Z,100867.94
2023-10-18T15:04:39.104Z,100872.75
2023-10-18T15:07:07.241Z,100860.66
2023-10-18T15:09:35.445Z,100860.91
2023-10-18T15:12:03.580Z,100852.28
2023-10-18T15:14:34.158Z,100847.19
2023-10-18T15:17:03.535Z,100847.47
2023-10-18T15:19:32.052Z,100843.13
2023-10-18T15:22:01.007Z,100828.22
2023-10-18T15:24:29.523Z,100829.25
2023-10-18T15:26:57.841Z,100825.13
2023-10-18T15:29:25.969Z,100823.59
2023-10-18T15:31:55.555Z,100813.19
2023-10-18T15:34:23.744Z,100815.44
2023-10-18T15:36:52.053Z,100814.84
2023-10-18T15:39:20.586Z,100800.78
2023-10-18T15:41:50.333Z,100809.25
2023-10-18T15:44:18.667Z,100804.16
2023-10-18T15:46:48.800Z,100795.59
2023-10-18T15:49:19.021Z,100794.13
2023-10-18T15:51:51.885Z,100789.81
2023-10-18T15:54:20.203Z,100791.03
2023-10-18T15:56:48.409Z,100786.09
2023-10-18T15:59:18.600Z,100786.66
2023-10-18T16:01:58.860Z,100779.94
2023-10-18T16:04:30.359Z,100778.47
2023-10-18T16:06:58.633Z,100775.19
2023-10-18T16:09:29.053Z,100786.22
2023-10-18T16:11:59.695Z,100777.56
2023-10-18T16:14:30.518Z,100773.50
2023-10-18T16:17:04.714Z,100772.91
2023-10-18T16:19:36.309Z,100764.41
2023-10-18T16:22:04.493Z,100763.84
2023-10-18T16:24:32.974Z,100753.41
2023-10-18T16:27:01.319Z,100752.84
2023-10-18T16:29:29.470Z,100757.63
2023-10-18T16:32:00.213Z,100751.72
2023-10-18T16:34:29.725Z,100745.84
2023-10-18T16:36:59.862Z,100751.56
2023-10-18T16:39:30.754Z,100752.81
2023-10-18T16:41:58.991Z,100751.31
2023-10-18T16:44:27.148Z,100752.47
2023-10-18T16:46:55.928Z,100751.88
2023-10-18T16:49:24.369Z,100745.00
2023-10-18T16:51:54.442Z,100749.78
2023-10-18T16:54:24.023Z,100741.00
2023-10-18T16:56:52.199Z,100740.25
2023-10-18T16:59:21.154Z,100751.09
2023-10-18T17:01:49.430Z,100732.34
2023-10-18T17:04:18.640Z,100732.44
2023-10-18T17:06:47.147Z,100729.84
2023-10-18T17:09:19.164Z,100725.53
2023-10-18T17:11:48.753Z,100718.41
2023-10-18T17:14:18.158Z,100729.41
2023-10-18T17:16:47.101Z,100729.41
2023-10-18T17:19:15.969Z,100731.31
2023-10-18T17:21:44.651Z,100724.22
2023-10-18T17:24:12.961Z,100722.47
2023-10-18T17:26:41.409Z,100720.66
2023-10-18T17:29:11.678Z,100726.13
2023-10-18T17:31:39.881Z,100721.69
2023-10-18T17:34:12.662Z,100727.06
2023-10-18T17:36:42.286Z,100719.16
2023-10-18T17:39:12.219Z,100728.34
2023-10-18T17:41:40.883Z,100716.06
2023-10-18T17:44:10.478Z,100722.38
2023-10-18T17:46:38.694Z,100724.28
2023-10-18T17:49:06.888Z,100719.94
2023-10-18T17:51:34.978Z,100716.56
2023-10-18T17:54:04.376Z,100713.09
2023-10-18T17:56:33.755Z,100715.88
2023-10-18T17:59:06.085Z,100707.81
2023-10-18T18:01:35.694Z,100707.81
2023-10-18T18:04:04.151Z,100713.19
2023-10-18T18:06:37.511Z,100703.41
2023-10-18T18:09:06.450Z,100707.03
2023-10-18T18:11:36.877Z,100698.16
2023-10-18T18:14:07.381Z,100697.47
2023-10-18T18:16:37.239Z,100693.19
2023-10-18T18:19:06.443Z,100685.31
2023-10-18T18:21:36.092Z,100678.38
2023-10-18T18:24:04.946Z,100690.22
2023-10-18T18:26:33.136Z,100685.91
2023-10-18T18:29:01.868Z,100678.91
2023-10-18T18:31:29.970Z,100675.41
2023-10-18T18:33:59.648Z,100682.69
2023-10-18T18:36:27.819Z,100673.84
2023-10-18T18:38:55.963Z,100669.44
2023-10-18T18:41:28.425Z,100664.22
2023-10-18T18:43:56.635Z,100656.25
2023-10-18T18:46:36.158Z,100655.50
2023-10-18T18:49:08.835Z,100656.50
2023-10-18T18:51:37.354Z,100650.25
2023-10-18T18:54:06.553Z,100650.25
2023-10-18T18:56:35.462Z,100636.16
2023-10-18T18:59:03.636Z,100641.59
2023-10-18T19:01:31.814Z,100643.41
2023-10-18T19:04:00.082Z,100634.50
2023-10-18T19:06:29.748Z,100637.28
2023-10-18T19:08:57.932Z,100636.50
2023-10-18T19:11:27.530Z,100635.69
2023-10-18T19:13:56.650Z,100621.50
2023-10-18T19:16:24.968Z,100628.75
2023-10-18T19:18:54.684Z,100624.34
2023-10-18T19:21:24.564Z,100617.34
2023-10-18T19:23:54.994Z,100616.47
2023-10-18T19:26:23.435Z,100620.88
2023-10-18T19:28:51.605Z,100618.28
2023-10-18T19:31:21.638Z,100613.88
2023-10-18T19:33:51.314Z,100613.88
2023-10-18T19:36:21.103Z,100615.69
2023-10-18T19:38:50.102Z,100605.88
2023-10-18T19:41:20.416Z,100616.63
2023-10-18T19:43:48.627Z,100607.63
2023-10-18T19:46:16.965Z,100605.81
2023-10-18T19:48:45.186Z,100618.28
2023-10-18T19:51:16.880Z,100610.16
2023-10-18T19:53:45.781Z,100607.47
2023-10-18T19:56:14.879Z,100605.66
2023-10-18T19:58:44.740Z,100594.91
2023-10-18T20:01:13.315Z,100601.16
2023-10-18T20:03:41.718Z,100602.97
2023-10-18T20:06:10.073Z,100604.78
2023-10-18T20:08:38.363Z,100594.91
2023-10-18T20:11:08.494Z,100595.88
2023-10-18T20:13:37.083Z,100594.13
2023-10-18T20:16:09.442Z,100587.91
2023-10-18T20:18:38.176Z,100583.50
2023-10-18T20:21:07.103Z,100583.53
2023-10-18T20:23:35.379Z,100582.63
2023-10-18T20:26:06.586Z,100579.22
2023-10-18T20:28:34.746Z,100583.81
2023-10-18T20:31:03.467Z,100574.97
2023-10-18T20:33:33.104Z,100575.06
2023-10-18T20:36:01.272Z,100572.47
2023-10-18T20:38:29.514Z,100569.88
2023-10-18T20:40:57.807Z,100568.19
2023-10-18T20:43:30.080Z,100556.69
2023-10-18T20:46:04.822Z,100549.41
2023-10-18T20:48:36.085Z,100542.19
2023-10-18T20:51:09.163Z,100549.28
2023-10-18T20:53:38.354Z,100545.66
2023-10-18T20:56:10.636Z,100540.97
2023-10-18T20:58:39.748Z,100538.09
2023-10-18T21:01:13.229Z,100528.16
2023-10-18T21:03:44.634Z,100516.31
2023-10-18T21:06:15.585Z,100504.44
2023-10-18T21:08:44.138Z,100489.91
2023-10-18T21:11:12.940Z,100491.47
2023-10-18T21:13:41.739Z,100492.16
2023-10-18T21:16:12.657Z,100496.47
2023-10-18T21:18:43.834Z,100481.16
2023-10-18T21:21:15.489Z,100485.47
2023-10-18T21:23:45.258Z,100481.88
2023-10-18T21:26:14.540Z,100474.66
2023-10-18T21:28:43.832Z,100469.31
2023-10-18T21:31:15.068Z,100475.53
2023-10-18T21:33:45.140Z,100466.53
2023-10-18T21:36:14.638Z,100443.31
2023-10-18T21:38:44.561Z,100450.41
2023-10-18T21:41:13.404Z,100453.09
2023-10-18T21:43:41.571Z,100451.28
2023-10-18T21:46:10.967Z,100449.56
2023-10-18T21:48:40.195Z,100446.97
2023-10-18T21:51:13.283Z,100460.44
2023-10-18T21:53:42.295Z,100445.28
2023-10-18T21:56:15.262Z,100440.03
2023-10-18T21:58:47.161Z,100442.78
2023-10-18T22:01:30.437Z,100433.00
2023-10-18T22:04:00.953Z,100425.81
2023-10-18T22:06:30.960Z,100422.19
2023-10-18T22:09:06.500Z,100423.13
2023-10-18T22:11:36.286Z,100413.28
2023-10-18T22:14:19.057Z,100409.81
2023-10-18T22:16:54.793Z,100417.09
2023-10-18T22:19:28.086Z,100407.22
2023-10-18T22:21:58.471Z,100401.00
2023-10-18T22:24:30.010Z,100391.31
2023-10-18T22:26:59.069Z,100383.25
2023-10-18T22:29:29.552Z,100382.44
2023-10-18T22:32:16.179Z,100370.00
2023-10-18T22:34:47.283Z,100375.44
2023-10-18T22:37:17.031Z,100364.72
2023-10-18T22:39:49.760Z,100355.91
2023-10-18T22:42:23.343Z,100355.03
2023-10-18T22:45:05.411Z,100345.34
2023-10-18T22:47:38.827Z,100333.75
2023-10-18T22:50:20.690Z,100333.75
2023-10-18T22:52:55.260Z,100335.66
2023-10-18T22:55:27.152Z,100325.91
2023-10-18T22:57:57.290Z,100323.22
2023-10-18T23:00:32.717Z,100321.38
2023-10-18T23:03:02.909Z,100311.44
2023-10-18T23:05:31.501Z,100304.22
2023-10-18T23:08:02.217Z,100303.47
2023-10-18T23:10:49.791Z,100298.00
2023-10-18T23:13:48.649Z,100296.09
2023-10-18T23:16:39.801Z,100287.09
2023-10-18T23:19:32.377Z,100277.97
2023-10-18T23:22:14.819Z,100265.31
2023-10-18T23:24:47.485Z,100258.06
2023-10-18T23:27:47.728Z,100249.06
2023-10-18T23:30:20.382Z,100254.25
2023-10-18T23:32:59.347Z,100250.69
2023-10-18T23:35:33.607Z,100250.59
2023-10-18T23:38:19.154Z,100249.63
2023-10-18T23:41:10.294Z,100243.31
2023-10-18T23:43:51.594Z,100243.13
2023-10-18T23:46:37.818Z,100232.28
2023-10-18T23:49:23.036Z,100227.78
2023-10-18T23:52:15.530Z,100227.72
2023-10-18T23:54:44.653Z,100226.66
2023-10-18T23:57:14.985Z,100220.31
2023-10-18T23:59:44.227Z,100222.03
